NK0 weather

Public forecast

Using degrees Fahrenheit for public forecast. Weather courtesy of forecast.io.

Closest aviation weather report (METAR) to Maus Marineland Seaplane Base

Closest report is Cortland County Chase Field, 13.7 nm (25.4 km) SSE. Retrieved 2020/08/14 14:15 UTC (0 seconds ago):

KN03 141415Z AUTO 00000KT 10SM CLR 23/16 A3012 RMK AO2

Closest aviation forecast (TAF) to Maus Marineland Seaplane Base

Closest forecast is Syracuse Hancock International Airport, 20.2 nm (37.4 km) NNE. Retrieved 2020/08/14 12:33 UTC (1 hour ago):

TAF KSYR 141131Z 1412/1512 01005KT P6SM FEW250